createdAt,value
2022-08-16T00:01:33.872Z,97.40
2022-08-16T00:04:05.074Z,97.50
2022-08-16T00:06:34.775Z,97.50
2022-08-16T00:09:24.186Z,97.60
2022-08-16T00:11:55.490Z,97.60
2022-08-16T00:14:43.368Z,97.60
2022-08-16T00:17:16.387Z,97.60
2022-08-16T00:19:49.089Z,97.80
2022-08-16T00:22:24.704Z,97.90
2022-08-16T00:24:55.117Z,98.00
2022-08-16T00:27:24.750Z,98.00
2022-08-16T00:30:08.325Z,98.10
2022-08-16T00:33:01.082Z,98.20
2022-08-16T00:35:34.907Z,98.10
2022-08-16T00:38:40.058Z,98.20
2022-08-16T00:40:56.749Z,98.30
2022-08-16T00:43:42.480Z,98.30
2022-08-16T00:46:33.313Z,98.20
2022-08-16T00:49:17.791Z,98.20
2022-08-16T00:51:55.242Z,98.20
2022-08-16T00:54:27.442Z,98.30
2022-08-16T00:56:59.750Z,98.40
2022-08-16T00:59:54.855Z,98.60
2022-08-16T01:02:30.365Z,98.60
2022-08-16T01:05:09.308Z,98.60
2022-08-16T01:07:50.535Z,98.70
2022-08-16T01:10:20.888Z,98.80
2022-08-16T01:12:49.914Z,98.80
2022-08-16T01:15:19.793Z,98.90
2022-08-16T01:17:56.071Z,99.00
2022-08-16T01:20:30.411Z,99.10
2022-08-16T01:23:08.507Z,99.30
2022-08-16T01:25:45.022Z,99.30
2022-08-16T01:28:30.866Z,99.40
2022-08-16T01:31:01.477Z,99.40
2022-08-16T01:33:33.387Z,99.50
2022-08-16T01:36:12.051Z,99.40
2022-08-16T01:38:51.220Z,99.40
2022-08-16T01:41:31.484Z,99.30
2022-08-16T01:44:04.264Z,99.30
2022-08-16T01:46:53.562Z,99.30
2022-08-16T01:49:42.901Z,99.20
2022-08-16T01:52:29.586Z,99.20
2022-08-16T01:55:20.134Z,99.20
2022-08-16T01:57:56.396Z,99.00
2022-08-16T02:00:29.163Z,98.80
2022-08-16T02:03:01.340Z,98.70
2022-08-16T02:05:31.515Z,98.70
2022-08-16T02:08:04.864Z,98.70
2022-08-16T02:10:34.464Z,98.70
2022-08-16T02:13:07.677Z,98.80
2022-08-16T02:15:43.773Z,98.80
2022-08-16T02:18:18.776Z,98.90
2022-08-16T02:20:53.488Z,99.00
2022-08-16T02:23:23.881Z,99.10
2022-08-16T02:25:54.607Z,99.20
2022-08-16T02:28:26.943Z,99.20
2022-08-16T02:30:57.557Z,99.30
2022-08-16T02:33:42.805Z,99.40
2022-08-16T02:36:42.284Z,99.40
2022-08-16T02:39:22.961Z,99.50
2022-08-16T02:41:54.456Z,99.60
2022-08-16T02:44:28.400Z,99.70
2022-08-16T02:46:58.739Z,99.80
2022-08-16T02:49:58.243Z,99.90
2022-08-16T02:52:38.586Z,99.90
2022-08-16T02:55:10.999Z,99.90
2022-08-16T02:57:42.341Z,99.90
2022-08-16T03:00:34.395Z,99.90
2022-08-16T03:03:10.562Z,99.90
2022-08-16T03:05:40.085Z,99.90
2022-08-16T03:08:50.534Z,99.90
2022-08-16T03:11:01.171Z,99.90
2022-08-16T03:13:31.042Z,99.90
2022-08-16T03:16:33.086Z,99.90
2022-08-16T03:19:01.765Z,99.90
2022-08-16T03:21:38.073Z,99.90
2022-08-16T03:24:28.377Z,99.90
2022-08-16T03:27:01.773Z,99.90
2022-08-16T03:29:34.809Z,99.90
2022-08-16T03:32:07.913Z,99.90
2022-08-16T03:34:37.026Z,99.90
2022-08-16T03:37:06.420Z,99.90
2022-08-16T03:39:43.031Z,99.90
2022-08-16T03:42:20.519Z,99.90
2022-08-16T03:44:52.344Z,99.90
2022-08-16T03:47:35.034Z,99.90
2022-08-16T03:50:25.326Z,99.90
2022-08-16T03:53:01.301Z,99.90
2022-08-16T03:55:45.070Z,99.90
2022-08-16T03:58:14.418Z,99.90
2022-08-16T04:00:43.854Z,99.90
2022-08-16T04:03:19.412Z,99.90
2022-08-16T04:06:09.684Z,99.90
2022-08-16T04:08:39.665Z,99.90
2022-08-16T04:11:27.657Z,99.90
2022-08-16T04:14:32.676Z,99.90
2022-08-16T04:16:56.609Z,99.90
2022-08-16T04:19:36.300Z,99.90
2022-08-16T04:22:27.512Z,99.90
2022-08-16T04:25:01.777Z,99.90
2022-08-16T04:27:54.303Z,99.90
2022-08-16T04:30:32.469Z,99.90
2022-08-16T04:33:05.895Z,99.90
2022-08-16T04:35:39.687Z,99.90
2022-08-16T04:38:11.075Z,99.90
2022-08-16T04:40:54.391Z,99.90
2022-08-16T04:43:23.949Z,99.90
2022-08-16T04:46:00.508Z,99.90
2022-08-16T04:48:34.565Z,99.90
2022-08-16T04:51:12.711Z,99.90
2022-08-16T04:53:50.176Z,99.90
2022-08-16T04:56:22.032Z,99.90
2022-08-16T04:58:57.718Z,99.90
2022-08-16T05:01:47.734Z,99.90
2022-08-16T05:04:19.380Z,99.90
2022-08-16T05:06:52.865Z,99.90
2022-08-16T05:09:45.066Z,99.90
2022-08-16T05:12:22.093Z,99.90
2022-08-16T05:15:02.659Z,99.90
2022-08-16T05:17:37.887Z,99.90
2022-08-16T05:20:35.675Z,99.90
2022-08-16T05:23:04.886Z,99.90
2022-08-16T05:25:47.839Z,99.90
2022-08-16T05:28:20.999Z,99.90
2022-08-16T05:30:56.168Z,99.90
2022-08-16T05:33:28.442Z,99.90
2022-08-16T05:36:16.212Z,99.90
2022-08-16T05:38:54.925Z,99.90
2022-08-16T05:41:23.934Z,99.90
2022-08-16T05:43:59.239Z,99.90
2022-08-16T05:46:43.829Z,99.90
2022-08-16T05:49:22.165Z,99.90
2022-08-16T05:51:55.596Z,99.90
2022-08-16T05:54:28.122Z,99.90
2022-08-16T05:57:01.769Z,99.90
2022-08-16T05:59:33.351Z,99.90
2022-08-16T06:02:02.881Z,99.90
2022-08-16T06:04:37.888Z,99.80
2022-08-16T06:07:25.116Z,99.60
2022-08-16T06:10:32.027Z,99.30
2022-08-16T06:13:06.154Z,99.00
2022-08-16T06:15:37.021Z,98.80
2022-08-16T06:18:10.824Z,98.70
2022-08-16T06:20:51.677Z,98.50
2022-08-16T06:23:43.808Z,98.30
2022-08-16T06:26:17.563Z,98.10
2022-08-16T06:28:48.761Z,97.80
2022-08-16T06:31:25.026Z,97.70
2022-08-16T06:33:56.603Z,97.40
2022-08-16T06:36:28.207Z,97.20
2022-08-16T06:39:11.874Z,97.00
2022-08-16T06:42:11.603Z,96.70
2022-08-16T06:45:08.653Z,96.50
2022-08-16T06:47:54.125Z,96.10
2022-08-16T06:50:29.890Z,95.70
2022-08-16T06:53:19.829Z,95.30
2022-08-16T06:56:14.784Z,94.80
2022-08-16T06:59:02.077Z,94.40
2022-08-16T07:01:46.158Z,94.10
2022-08-16T07:04:32.396Z,93.80
2022-08-16T07:07:09.722Z,93.50
2022-08-16T07:09:40.873Z,93.20
2022-08-16T07:12:11.203Z,92.60
2022-08-16T07:14:49.905Z,92.30
2022-08-16T07:17:21.903Z,91.90
2022-08-16T07:20:02.707Z,91.70
2022-08-16T07:22:52.801Z,91.40
2022-08-16T07:25:40.742Z,91.00
2022-08-16T07:28:20.600Z,90.70
2022-08-16T07:30:51.744Z,90.50
2022-08-16T07:33:52.296Z,90.20
2022-08-16T07:36:22.125Z,90.00
2022-08-16T07:38:53.009Z,89.20
2022-08-16T07:41:23.376Z,88.80
2022-08-16T07:44:00.105Z,88.30
2022-08-16T07:46:37.511Z,88.00
2022-08-16T07:49:13.318Z,87.30
2022-08-16T07:51:43.585Z,86.90
2022-08-16T07:54:21.062Z,86.20
2022-08-16T07:56:56.405Z,85.30
2022-08-16T07:59:27.193Z,84.10
2022-08-16T08:02:20.491Z,83.50
2022-08-16T08:04:56.352Z,82.50
2022-08-16T08:07:29.355Z,81.30
2022-08-16T08:10:29.471Z,80.00
2022-08-16T08:13:01.439Z,78.80
2022-08-16T08:15:34.441Z,77.20
2022-08-16T08:18:30.278Z,73.60
2022-08-16T08:20:59.203Z,72.50
2022-08-16T08:23:31.741Z,71.30
2022-08-16T08:26:01.135Z,70.40
2022-08-16T08:28:32.256Z,69.10
2022-08-16T08:31:05.840Z,69.50
2022-08-16T08:33:58.705Z,68.50
2022-08-16T08:36:34.959Z,67.60
2022-08-16T08:39:28.897Z,66.50
2022-08-16T08:41:57.970Z,66.00
2022-08-16T08:44:41.970Z,65.60
2022-08-16T08:47:16.618Z,64.20
2022-08-16T08:49:55.239Z,64.20
2022-08-16T08:52:34.775Z,62.70
2022-08-16T08:55:12.934Z,61.90
2022-08-16T08:58:00.276Z,60.40
2022-08-16T09:00:51.242Z,60.00
2022-08-16T09:03:23.204Z,59.30
2022-08-16T09:05:54.344Z,58.90
2022-08-16T09:08:26.516Z,58.20
2022-08-16T09:11:03.462Z,57.60
2022-08-16T09:13:39.078Z,58.00
2022-08-16T09:17:02.876Z,56.80
2022-08-16T09:21:44.460Z,55.50
2022-08-16T09:24:51.783Z,55.40
2022-08-16T09:27:14.732Z,55.00
2022-08-16T09:29:46.304Z,54.70
2022-08-16T09:32:28.619Z,54.20
2022-08-16T09:34:59.616Z,53.70
2022-08-16T09:37:36.369Z,52.80
2022-08-16T09:40:32.541Z,52.40
2022-08-16T09:42:59.752Z,52.50
2022-08-16T09:45:30.374Z,52.20
2022-08-16T09:48:00.264Z,52.60
2022-08-16T09:50:37.168Z,51.70
2022-08-16T09:53:14.719Z,51.20
2022-08-16T09:55:49.388Z,50.70
2022-08-16T09:58:41.956Z,50.50
2022-08-16T10:01:11.544Z,50.70
2022-08-16T10:04:02.014Z,49.70
2022-08-16T10:06:33.802Z,49.00
2022-08-16T10:09:23.430Z,48.20
2022-08-16T10:12:19.454Z,47.70
2022-08-16T10:15:09.320Z,47.70
2022-08-16T10:17:59.492Z,47.10
2022-08-16T10:20:50.052Z,46.70
2022-08-16T10:23:19.475Z,46.60
2022-08-16T10:27:18.564Z,46.10
2022-08-16T10:28:41.956Z,46.00
2022-08-16T10:31:16.868Z,46.00
2022-08-16T10:34:02.753Z,45.60
2022-08-16T10:36:37.836Z,44.70
2022-08-16T10:39:09.026Z,44.30
2022-08-16T10:41:39.570Z,44.00
2022-08-16T10:44:08.670Z,43.90
2022-08-16T10:46:41.744Z,43.60
2022-08-16T10:49:12.772Z,43.80
2022-08-16T10:52:02.410Z,43.70
2022-08-16T10:55:40.252Z,43.60
2022-08-16T10:57:43.916Z,44.00
2022-08-16T11:00:20.776Z,43.90
2022-08-16T11:02:58.055Z,43.80
2022-08-16T11:05:59.120Z,43.70
2022-08-16T11:08:31.210Z,43.40
2022-08-16T11:11:23.283Z,42.70
2022-08-16T11:13:58.921Z,41.60
2022-08-16T11:17:10.443Z,40.60
2022-08-16T11:20:00.728Z,40.10
2022-08-16T11:22:48.575Z,39.60
2022-08-16T11:28:36.144Z,38.50
2022-08-16T11:31:02.950Z,37.80
2022-08-16T11:36:22.301Z,36.50
2022-08-16T11:39:12.396Z,36.60
2022-08-16T11:41:43.675Z,36.70
2022-08-16T11:44:13.582Z,36.90
2022-08-16T11:46:50.773Z,35.60
2022-08-16T11:49:22.834Z,35.00
2022-08-16T11:51:51.758Z,35.20
2022-08-16T11:54:23.478Z,35.60
2022-08-16T11:57:02.491Z,35.90
2022-08-16T11:59:32.777Z,35.50
2022-08-16T12:02:30.677Z,35.90
2022-08-16T12:05:14.428Z,35.80
2022-08-16T12:07:45.089Z,36.50
2022-08-16T12:10:18.129Z,36.00
2022-08-16T12:12:48.119Z,36.00
2022-08-16T12:15:21.709Z,36.30
2022-08-16T12:17:52.688Z,36.30
2022-08-16T12:20:29.726Z,36.90
2022-08-16T12:22:59.424Z,36.50
2022-08-16T12:25:32.296Z,36.50
2022-08-16T12:28:36.943Z,37.00
2022-08-16T12:31:09.265Z,36.90
2022-08-16T12:33:44.821Z,37.40
2022-08-16T12:36:14.647Z,37.50
2022-08-16T12:38:48.344Z,37.70
2022-08-16T12:41:24.464Z,37.80
2022-08-16T12:43:57.021Z,37.20
2022-08-16T12:46:30.904Z,36.80
2022-08-16T12:49:01.926Z,36.80
2022-08-16T12:51:58.120Z,36.80
2022-08-16T12:54:23.107Z,36.30
2022-08-16T12:56:52.144Z,36.60
2022-08-16T12:59:22.094Z,36.50
2022-08-16T13:01:55.365Z,36.00
2022-08-16T13:04:31.425Z,35.40
2022-08-16T13:07:27.327Z,35.30
2022-08-16T13:09:58.533Z,34.30
2022-08-16T13:12:28.731Z,33.90
2022-08-16T13:14:58.771Z,33.10
2022-08-16T13:17:29.944Z,33.30
2022-08-16T13:20:21.419Z,33.20
2022-08-16T13:22:53.183Z,33.10
2022-08-16T13:25:42.325Z,32.80
2022-08-16T13:28:17.058Z,32.70
2022-08-16T13:30:50.636Z,33.10
2022-08-16T13:33:29.725Z,32.50
2022-08-16T13:36:02.088Z,33.20
2022-08-16T13:38:37.468Z,33.70
2022-08-16T13:41:08.832Z,33.90
2022-08-16T13:43:39.488Z,34.00
2022-08-16T13:46:09.400Z,33.80
2022-08-16T13:48:44.115Z,34.60
2022-08-16T13:51:20.874Z,34.80
2022-08-16T13:53:59.877Z,35.60
2022-08-16T13:56:37.770Z,35.80
2022-08-16T13:59:19.610Z,36.80
2022-08-16T14:01:55.987Z,37.50
2022-08-16T14:04:27.597Z,37.90
2022-08-16T14:06:59.298Z,38.10
2022-08-16T14:09:29.149Z,38.70
2022-08-16T14:12:22.822Z,38.50
2022-08-16T14:14:56.383Z,38.70
2022-08-16T14:17:27.295Z,38.70
2022-08-16T14:19:59.669Z,38.70
2022-08-16T14:22:39.949Z,39.00
2022-08-16T14:25:18.589Z,39.50
2022-08-16T14:27:48.406Z,39.60
2022-08-16T14:30:22.992Z,39.30
2022-08-16T14:32:52.830Z,39.60
2022-08-16T14:35:36.285Z,39.70
2022-08-16T14:38:08.052Z,39.50
2022-08-16T14:40:37.174Z,39.40
2022-08-16T14:43:08.531Z,38.90
2022-08-16T14:45:38.302Z,39.10
2022-08-16T14:48:08.504Z,39.50
2022-08-16T14:50:37.390Z,39.70
2022-08-16T14:53:10.736Z,40.00
2022-08-16T14:55:41.329Z,40.40
2022-08-16T14:58:19.219Z,40.30
2022-08-16T15:00:50.650Z,40.80
2022-08-16T15:03:23.502Z,40.80
2022-08-16T15:05:54.043Z,40.70
2022-08-16T15:08:45.832Z,40.60
2022-08-16T15:11:15.169Z,40.30
2022-08-16T15:13:46.788Z,40.40
2022-08-16T15:16:16.473Z,40.50
2022-08-16T15:18:46.629Z,40.30
2022-08-16T15:21:15.930Z,40.20
2022-08-16T15:23:46.480Z,40.10
2022-08-16T15:26:22.264Z,40.40
2022-08-16T15:29:04.311Z,40.60
2022-08-16T15:31:37.712Z,40.30
2022-08-16T15:34:06.601Z,40.50
2022-08-16T15:36:42.495Z,40.30
2022-08-16T15:39:30.359Z,40.30
2022-08-16T15:42:06.896Z,40.00
2022-08-16T15:44:51.850Z,40.00
2022-08-16T15:47:26.362Z,40.30
2022-08-16T15:49:56.415Z,40.50
2022-08-16T15:52:29.325Z,40.90
2022-08-16T15:55:07.455Z,41.60
2022-08-16T15:57:51.460Z,41.90
2022-08-16T16:00:22.504Z,42.20
2022-08-16T16:03:03.117Z,42.50
2022-08-16T16:05:32.246Z,42.90
2022-08-16T16:08:11.059Z,43.50
2022-08-16T16:10:54.218Z,44.00
2022-08-16T16:13:24.901Z,44.10
2022-08-16T16:15:55.963Z,44.30
2022-08-16T16:18:26.209Z,44.90
2022-08-16T16:21:13.908Z,45.20
2022-08-16T16:23:54.787Z,45.00
2022-08-16T16:26:33.341Z,45.80
2022-08-16T16:29:07.599Z,46.00
2022-08-16T16:31:59.083Z,46.10
2022-08-16T16:34:32.397Z,46.10
2022-08-16T16:37:22.890Z,46.70
2022-08-16T16:39:52.114Z,47.30
2022-08-16T16:42:29.291Z,47.20
2022-08-16T16:45:02.086Z,47.60
2022-08-16T16:47:40.668Z,48.20
2022-08-16T16:50:13.019Z,48.60
2022-08-16T16:52:44.416Z,49.20
2022-08-16T16:55:14.920Z,49.80
2022-08-16T16:57:59.010Z,50.10
2022-08-16T17:00:37.627Z,50.20
2022-08-16T17:03:16.858Z,50.50
2022-08-16T17:05:57.403Z,51.10
2022-08-16T17:08:57.096Z,51.70
2022-08-16T17:11:26.408Z,51.90
2022-08-16T17:14:00.745Z,52.40
2022-08-16T17:16:32.888Z,53.30
2022-08-16T17:19:17.558Z,53.70
2022-08-16T17:21:48.676Z,54.30
2022-08-16T17:24:19.834Z,54.50
2022-08-16T17:26:55.953Z,54.60
2022-08-16T17:29:30.694Z,55.10
2022-08-16T17:32:33.177Z,54.90
2022-08-16T17:34:51.035Z,55.40
2022-08-16T17:37:22.231Z,55.60
2022-08-16T17:40:25.854Z,56.20
2022-08-16T17:43:04.287Z,56.60
2022-08-16T17:45:34.738Z,56.90
2022-08-16T17:48:03.854Z,57.50
2022-08-16T17:50:32.933Z,57.90
2022-08-16T17:53:02.742Z,58.00
2022-08-16T17:55:34.457Z,58.20
2022-08-16T17:58:20.160Z,58.30
2022-08-16T18:00:56.082Z,58.60
2022-08-16T18:04:07.246Z,58.90
2022-08-16T18:06:17.953Z,59.00
2022-08-16T18:09:05.999Z,59.00
2022-08-16T18:11:40.736Z,59.30
2022-08-16T18:14:11.461Z,59.50
2022-08-16T18:16:42.772Z,60.50
2022-08-16T18:19:12.182Z,61.10
2022-08-16T18:21:59.732Z,61.60
2022-08-16T18:24:48.002Z,62.00
2022-08-16T18:27:26.562Z,62.30
2022-08-16T18:29:56.037Z,62.90
2022-08-16T18:32:27.725Z,63.00
2022-08-16T18:34:57.030Z,63.20
2022-08-16T18:37:26.156Z,63.40
2022-08-16T18:39:55.230Z,63.20
2022-08-16T18:42:27.187Z,63.10
2022-08-16T18:44:56.168Z,63.10
2022-08-16T18:47:26.668Z,63.20
2022-08-16T18:49:55.745Z,63.30
2022-08-16T18:52:26.040Z,63.40
2022-08-16T18:55:01.954Z,63.80
2022-08-16T18:57:43.305Z,63.90
2022-08-16T19:00:13.860Z,64.20
2022-08-16T19:02:58.787Z,64.50
2022-08-16T19:05:31.060Z,64.50
2022-08-16T19:08:01.315Z,64.70
2022-08-16T19:10:31.072Z,65.00
2022-08-16T19:13:01.278Z,65.00
2022-08-16T19:15:31.022Z,65.10
2022-08-16T19:18:04.741Z,65.20
2022-08-16T19:20:34.067Z,65.50
2022-08-16T19:23:05.404Z,65.70
2022-08-16T19:25:46.631Z,65.70
2022-08-16T19:28:50.663Z,65.90
2022-08-16T19:31:17.549Z,66.20
2022-08-16T19:33:54.264Z,66.50
2022-08-16T19:36:31.683Z,66.80
2022-08-16T19:39:20.108Z,67.10
2022-08-16T19:41:53.432Z,67.20
2022-08-16T19:44:24.064Z,67.30
2022-08-16T19:46:53.655Z,67.40
2022-08-16T19:49:24.085Z,67.50
2022-08-16T19:51:53.185Z,68.40
2022-08-16T19:54:22.019Z,67.80
2022-08-16T19:56:52.190Z,67.80
2022-08-16T19:59:44.614Z,67.90
2022-08-16T20:02:35.916Z,68.00
2022-08-16T20:05:10.299Z,68.20
2022-08-16T20:07:39.257Z,68.50
2022-08-16T20:10:10.494Z,68.70
2022-08-16T20:12:39.814Z,69.10
2022-08-16T20:15:15.994Z,69.30
2022-08-16T20:17:46.029Z,69.50
2022-08-16T20:20:19.228Z,69.80
2022-08-16T20:22:53.982Z,70.30
2022-08-16T20:25:28.147Z,70.50
2022-08-16T20:27:58.041Z,70.80
2022-08-16T20:30:27.465Z,71.00
2022-08-16T20:32:56.802Z,71.10
2022-08-16T20:35:29.622Z,71.30
2022-08-16T20:38:00.153Z,71.50
2022-08-16T20:40:35.135Z,71.70
2022-08-16T20:43:08.142Z,71.80
2022-08-16T20:45:37.737Z,72.00
2022-08-16T20:48:07.515Z,72.20
2022-08-16T20:50:38.501Z,72.40
2022-08-16T20:53:08.046Z,72.50
2022-08-16T20:55:40.243Z,72.80
2022-08-16T20:58:09.350Z,73.10
2022-08-16T21:00:38.485Z,73.30
2022-08-16T21:03:08.864Z,73.60
2022-08-16T21:05:39.899Z,73.50
2022-08-16T21:08:50.733Z,73.70
2022-08-16T21:10:59.474Z,73.90
2022-08-16T21:13:31.014Z,74.00
2022-08-16T21:16:00.958Z,74.20
2022-08-16T21:18:30.324Z,74.50
2022-08-16T21:21:00.926Z,74.70
2022-08-16T21:23:30.055Z,74.80
2022-08-16T21:25:59.803Z,75.00
2022-08-16T21:28:38.896Z,75.20
2022-08-16T21:31:30.472Z,75.30
2022-08-16T21:33:59.418Z,75.40
2022-08-16T21:36:35.624Z,75.60
2022-08-16T21:39:07.026Z,75.80
2022-08-16T21:41:38.560Z,76.00
2022-08-16T21:44:32.360Z,76.10
2022-08-16T21:47:08.107Z,75.90
2022-08-16T21:49:38.175Z,75.90
2022-08-16T21:52:26.119Z,75.90
2022-08-16T21:54:57.216Z,75.90
2022-08-16T21:57:26.404Z,76.20
2022-08-16T22:00:07.664Z,76.30
2022-08-16T22:02:39.282Z,76.50
2022-08-16T22:05:08.893Z,76.70
2022-08-16T22:07:39.187Z,76.70
2022-08-16T22:11:04.602Z,76.60
2022-08-16T22:12:58.840Z,76.40
2022-08-16T22:15:28.266Z,76.30
2022-08-16T22:17:59.208Z,76.30
2022-08-16T22:20:30.612Z,76.20
2022-08-16T22:23:12.179Z,76.00
2022-08-16T22:25:45.050Z,75.70
2022-08-16T22:28:15.562Z,75.50
2022-08-16T22:30:44.934Z,75.40
2022-08-16T22:33:16.740Z,75.30
2022-08-16T22:35:48.607Z,75.30
2022-08-16T22:38:53.620Z,74.70
2022-08-16T22:41:09.230Z,74.30
2022-08-16T22:43:38.235Z,74.20
2022-08-16T22:46:07.471Z,74.00
2022-08-16T22:48:39.473Z,73.80
2022-08-16T22:51:11.783Z,73.90
2022-08-16T22:53:42.158Z,74.00
2022-08-16T22:56:11.606Z,74.30
2022-08-16T22:58:40.630Z,74.40
2022-08-16T23:01:11.521Z,74.50
2022-08-16T23:03:41.182Z,74.50
2022-08-16T23:06:12.243Z,74.60
2022-08-16T23:08:43.531Z,74.50
2022-08-16T23:11:15.279Z,74.70
2022-08-16T23:13:52.651Z,74.70
2022-08-16T23:16:33.518Z,75.10
2022-08-16T23:19:03.686Z,75.50
2022-08-16T23:21:33.295Z,75.90
2022-08-16T23:24:03.922Z,76.30
2022-08-16T23:26:44.773Z,76.50
2022-08-16T23:29:23.230Z,76.70
2022-08-16T23:31:58.411Z,77.00
2022-08-16T23:34:29.763Z,77.40
2022-08-16T23:36:59.286Z,77.70
2022-08-16T23:39:47.943Z,78.20
2022-08-16T23:42:52.214Z,78.70
2022-08-16T23:45:07.869Z,79.10
2022-08-16T23:47:37.014Z,79.50
2022-08-16T23:50:06.721Z,79.70
2022-08-16T23:52:42.368Z,80.00
2022-08-16T23:55:26.026Z,80.30
2022-08-16T23:57:55.714Z,80.50
